< < Back
Terminal Aerodrome Forecast


Current Version              Previous Versions:   1  2  3  4  5  6  7  8  9  

Terminal Aerodrome Forecast

832
FTUS42 KFFC 212323
TAFCSG
TAF
KCSG 212323Z 2200/2224 30012G20KT P6SM SCT040
     FM220300 33008KT P6SM FEW035
     FM221000 02004KT P6SM SKC
     FM221700 05006KT P6SM FEW040=

Latest METAR

224
SAUS70 KWBC 221000
MTRCSG
METAR KCSG 220951Z AUTO 36005KT 10SM CLR 14/08 A3010 RMK AO2 SLP189
T01390078


USA.gov is the U.S. government's official web portal to all federal, state and local government web resources and services.